createdAt,value
2018-01-31T01:52:38.412Z,2.77
2018-01-31T01:55:10.996Z,2.30
2018-01-31T01:57:43.493Z,2.60
2018-01-31T02:00:15.936Z,3.00
2018-01-31T02:02:48.402Z,2.33
2018-01-31T02:05:20.984Z,2.77
2018-01-31T02:07:53.484Z,3.30
2018-01-31T02:10:26.706Z,2.70
2018-01-31T02:12:59.191Z,2.40
2018-01-31T02:15:31.750Z,2.93
2018-01-31T02:18:04.301Z,2.67
2018-01-31T02:20:36.840Z,2.90
2018-01-31T02:23:09.300Z,2.50
2018-01-31T02:25:42.072Z,2.43
2018-01-31T02:28:14.507Z,2.20
2018-01-31T02:30:47.098Z,2.33
2018-01-31T02:33:19.596Z,2.90
2018-01-31T02:35:52.218Z,2.43
2018-01-31T02:38:25.568Z,2.33
2018-01-31T02:40:58.865Z,2.17
2018-01-31T02:43:31.383Z,2.40
2018-01-31T02:46:04.517Z,2.40
2018-01-31T02:48:37.003Z,2.40
2018-01-31T02:51:09.612Z,2.23
2018-01-31T02:53:42.161Z,2.13
2018-01-31T02:56:14.520Z,2.40
2018-01-31T02:58:47.783Z,2.67
2018-01-31T03:01:20.282Z,2.70
2018-01-31T03:03:53.560Z,2.90
2018-01-31T03:06:26.079Z,3.00
2018-01-31T03:08:58.575Z,2.37
2018-01-31T03:11:31.012Z,2.30
2018-01-31T03:14:03.507Z,2.20
2018-01-31T03:16:36.077Z,2.40
2018-01-31T03:19:08.593Z,2.50
2018-01-31T03:21:41.132Z,2.00
2018-01-31T03:24:13.530Z,2.40
2018-01-31T03:26:46.752Z,2.30
2018-01-31T03:29:19.283Z,2.90
2018-01-31T03:31:52.623Z,1.97
2018-01-31T03:34:25.067Z,2.07
2018-01-31T03:36:57.704Z,1.90
2018-01-31T03:39:30.206Z,2.53
2018-01-31T03:42:03.631Z,2.40
2018-01-31T03:44:36.168Z,2.30
2018-01-31T03:47:08.541Z,2.17
2018-01-31T03:49:41.063Z,2.20
2018-01-31T03:52:14.343Z,2.50
2018-01-31T03:54:47.620Z,2.40
2018-01-31T03:57:20.936Z,1.80
2018-01-31T03:59:53.501Z,2.20
2018-01-31T04:02:26.015Z,2.73
2018-01-31T04:04:59.262Z,2.30
2018-01-31T04:07:31.774Z,1.60
2018-01-31T04:10:05.020Z,2.60
2018-01-31T04:12:38.330Z,2.17
2018-01-31T04:15:11.609Z,2.40
2018-01-31T04:17:44.233Z,2.10
2018-01-31T04:20:16.773Z,2.13
2018-01-31T04:22:49.383Z,2.63
2018-01-31T04:25:21.978Z,2.17
2018-01-31T04:27:54.439Z,2.03
2018-01-31T04:30:26.960Z,2.07
2018-01-31T04:32:59.488Z,2.13
2018-01-31T04:35:32.060Z,2.00
2018-01-31T04:38:05.421Z,2.20
2018-01-31T04:40:38.688Z,1.90
2018-01-31T04:43:11.111Z,2.00
2018-01-31T04:45:43.612Z,1.67
2018-01-31T04:48:16.163Z,2.23
2018-01-31T04:50:48.712Z,1.73
2018-01-31T04:53:21.283Z,2.07
2018-01-31T04:55:53.888Z,1.90
2018-01-31T04:58:26.455Z,2.60
2018-01-31T05:00:59.068Z,2.10
2018-01-31T05:03:32.304Z,1.77
2018-01-31T05:06:04.783Z,1.87
2018-01-31T05:08:37.253Z,2.30
2018-01-31T05:11:09.856Z,1.63
2018-01-31T05:13:43.135Z,2.10
2018-01-31T05:16:15.708Z,1.30
2018-01-31T05:18:48.271Z,2.00
2018-01-31T05:21:20.884Z,1.73
2018-01-31T05:23:54.244Z,2.00
2018-01-31T05:26:27.512Z,1.80
2018-01-31T05:29:00.733Z,1.80
2018-01-31T05:31:33.215Z,1.80
2018-01-31T05:34:05.775Z,2.00
2018-01-31T05:36:39.056Z,1.83
2018-01-31T05:39:11.440Z,2.30
2018-01-31T05:41:43.925Z,1.53
2018-01-31T05:44:16.488Z,1.77
2018-01-31T05:46:49.090Z,1.77
2018-01-31T05:49:22.474Z,1.90
2018-01-31T05:51:55.777Z,1.80
2018-01-31T05:54:28.304Z,1.83
2018-01-31T05:57:00.921Z,1.80
2018-01-31T05:59:33.460Z,1.60
2018-01-31T06:02:06.012Z,1.70
2018-01-31T06:04:38.535Z,1.90
2018-01-31T06:07:11.111Z,1.67
2018-01-31T06:09:44.296Z,1.77
2018-01-31T06:12:16.774Z,1.60
2018-01-31T06:14:49.416Z,1.70
2018-01-31T06:17:21.928Z,1.80
2018-01-31T06:19:54.416Z,1.70
2018-01-31T06:22:26.980Z,1.80
2018-01-31T06:24:59.543Z,1.70
2018-01-31T06:27:32.019Z,1.90
2018-01-31T06:30:05.303Z,1.70
2018-01-31T06:32:38.568Z,1.93
2018-01-31T06:35:11.064Z,1.40
2018-01-31T06:37:43.660Z,1.70
2018-01-31T06:40:16.196Z,1.80
2018-01-31T06:42:48.604Z,2.60
2018-01-31T06:45:21.160Z,1.80
2018-01-31T06:47:53.738Z,1.30
2018-01-31T06:50:27.746Z,1.70
2018-01-31T06:53:00.288Z,1.80
2018-01-31T06:55:32.800Z,1.50
2018-01-31T06:58:05.392Z,1.73
2018-01-31T07:00:38.675Z,1.80
2018-01-31T07:03:11.940Z,2.00
2018-01-31T07:05:44.464Z,3.13
2018-01-31T07:08:17.803Z,2.03
2018-01-31T07:10:51.114Z,1.30
2018-01-31T07:13:23.620Z,1.33
2018-01-31T07:15:56.202Z,1.57
2018-01-31T07:18:28.744Z,1.50
2018-01-31T07:21:01.361Z,1.43
2018-01-31T07:23:33.884Z,1.77
2018-01-31T07:26:07.288Z,1.57
2018-01-31T07:28:40.563Z,1.30
2018-01-31T07:31:12.880Z,1.70
2018-01-31T07:33:46.120Z,1.60
2018-01-31T07:36:18.756Z,1.63
2018-01-31T07:38:51.324Z,1.60
2018-01-31T07:41:24.693Z,1.73
2018-01-31T07:43:57.953Z,1.90
2018-01-31T07:46:30.294Z,1.70
2018-01-31T07:49:03.520Z,1.60
2018-01-31T07:51:36.064Z,1.40
2018-01-31T07:54:08.603Z,1.40
2018-01-31T07:56:41.888Z,1.83
2018-01-31T07:59:14.269Z,1.80
2018-01-31T08:01:46.846Z,1.80
2018-01-31T08:04:19.424Z,1.80
2018-01-31T08:06:52.700Z,1.73
2018-01-31T08:09:25.985Z,1.53
2018-01-31T08:11:58.569Z,1.70
2018-01-31T08:14:31.931Z,1.27
2018-01-31T08:17:04.405Z,1.67
2018-01-31T08:19:36.925Z,1.80
2018-01-31T08:22:09.488Z,1.40
2018-01-31T08:24:42.016Z,1.90
2018-01-31T08:27:16.076Z,1.23
2018-01-31T08:29:49.459Z,1.67
2018-01-31T08:32:21.984Z,1.37
2018-01-31T08:34:54.528Z,1.27
2018-01-31T08:37:27.083Z,1.43
2018-01-31T08:40:00.375Z,1.57
2018-01-31T08:42:33.000Z,1.20
2018-01-31T08:45:05.546Z,1.50
2018-01-31T08:47:38.080Z,1.67
2018-01-31T08:50:12.372Z,1.47
2018-01-31T08:52:45.631Z,1.20
2018-01-31T08:55:18.116Z,1.40
2018-01-31T08:57:51.392Z,1.23
2018-01-31T09:00:24.072Z,1.57
2018-01-31T09:02:56.437Z,1.47
2018-01-31T09:05:29.020Z,1.50
2018-01-31T09:08:01.713Z,1.50
2018-01-31T09:10:34.180Z,1.23
2018-01-31T09:13:06.757Z,1.30
2018-01-31T09:15:39.534Z,1.40
2018-01-31T09:18:12.345Z,1.20
2018-01-31T09:20:44.991Z,1.27
2018-01-31T09:23:17.917Z,1.47
2018-01-31T09:25:51.535Z,1.20
2018-01-31T09:28:24.187Z,1.00
2018-01-31T09:30:56.766Z,1.30
2018-01-31T09:33:29.403Z,1.87
2018-01-31T09:36:02.041Z,1.00
2018-01-31T09:38:34.755Z,1.50
2018-01-31T09:41:07.536Z,1.50
2018-01-31T09:43:40.327Z,1.40
2018-01-31T09:46:12.787Z,1.50
2018-01-31T09:48:45.486Z,1.07
2018-01-31T09:51:18.970Z,1.30
2018-01-31T09:53:51.858Z,1.30
2018-01-31T09:56:24.645Z,1.27
2018-01-31T09:58:57.410Z,1.10
2018-01-31T10:01:30.204Z,1.23
2018-01-31T10:04:02.891Z,1.47
2018-01-31T10:06:37.204Z,1.23
2018-01-31T10:09:10.470Z,1.57
2018-01-31T10:11:43.004Z,1.37
2018-01-31T10:14:16.331Z,1.30
2018-01-31T10:16:50.743Z,1.30
2018-01-31T10:19:24.192Z,1.40
2018-01-31T10:21:56.702Z,1.30
2018-01-31T10:24:29.312Z,1.10
2018-01-31T10:27:02.133Z,1.10
2018-01-31T10:29:34.977Z,1.47
2018-01-31T10:32:07.753Z,1.50
2018-01-31T10:34:40.635Z,1.20
2018-01-31T10:37:13.518Z,1.87
2018-01-31T10:39:46.308Z,1.10
2018-01-31T10:42:18.790Z,1.23
2018-01-31T10:44:51.664Z,1.20
2018-01-31T10:47:24.138Z,1.57
2018-01-31T10:49:56.713Z,1.10
2018-01-31T10:52:29.309Z,1.10
2018-01-31T10:57:28.566Z,1.00
2018-01-31T10:57:34.565Z,1.20
2018-01-31T11:00:07.724Z,1.20
2018-01-31T11:02:40.190Z,1.30
2018-01-31T11:05:12.896Z,1.00
2018-01-31T11:07:45.471Z,1.03
2018-01-31T11:10:19.168Z,1.33
2018-01-31T11:12:51.837Z,1.20
2018-01-31T11:15:24.605Z,1.17
2018-01-31T11:17:57.285Z,1.17
2018-01-31T11:20:30.116Z,1.13
2018-01-31T11:23:02.780Z,1.30
2018-01-31T11:25:35.341Z,1.13
2018-01-31T11:28:08.022Z,1.47
2018-01-31T11:30:40.891Z,1.60
2018-01-31T11:33:13.431Z,1.50
2018-01-31T11:35:46.153Z,1.00
2018-01-31T11:38:20.529Z,1.50
2018-01-31T11:40:53.340Z,1.20
2018-01-31T11:43:26.134Z,1.10
2018-01-31T11:45:58.900Z,1.17
2018-01-31T11:48:32.732Z,1.40
2018-01-31T11:51:05.482Z,1.37
2018-01-31T11:53:38.269Z,1.10
2018-01-31T11:56:10.839Z,1.10
2018-01-31T11:58:43.424Z,1.10
2018-01-31T12:01:17.228Z,1.07
2018-01-31T12:03:50.656Z,1.20
2018-01-31T12:06:23.504Z,1.20
2018-01-31T12:08:56.073Z,1.33
2018-01-31T12:11:28.648Z,0.90
2018-01-31T12:14:01.466Z,1.10
2018-01-31T12:16:34.365Z,1.33
2018-01-31T12:19:07.118Z,1.17
2018-01-31T12:21:39.882Z,1.80
2018-01-31T12:24:12.761Z,1.20
2018-01-31T12:26:45.645Z,1.53
2018-01-31T12:29:19.155Z,1.20
2018-01-31T12:31:51.846Z,1.07
2018-01-31T12:34:24.465Z,1.20
2018-01-31T12:36:56.881Z,0.93
2018-01-31T12:39:29.441Z,1.30
2018-01-31T12:42:02.078Z,1.17
2018-01-31T12:44:34.456Z,1.27
2018-01-31T12:47:07.777Z,1.43
2018-01-31T12:49:41.864Z,1.40
2018-01-31T12:52:14.393Z,1.17
2018-01-31T12:54:46.939Z,1.10
2018-01-31T12:57:19.371Z,1.10
2018-01-31T12:59:51.860Z,1.40
2018-01-31T13:02:25.172Z,1.00
2018-01-31T13:04:57.652Z,1.20
2018-01-31T13:07:30.235Z,1.10
2018-01-31T13:10:03.527Z,1.20
2018-01-31T13:12:36.793Z,1.47
2018-01-31T13:15:09.239Z,1.00
2018-01-31T13:17:41.818Z,1.23
2018-01-31T13:20:14.331Z,1.23
2018-01-31T13:22:47.720Z,0.83
2018-01-31T13:25:20.184Z,1.37
2018-01-31T13:27:52.783Z,1.27
2018-01-31T13:30:25.316Z,1.43
2018-01-31T13:32:57.968Z,1.20
2018-01-31T13:35:30.456Z,0.90
2018-01-31T13:38:03.049Z,1.27
2018-01-31T13:40:35.697Z,0.90
2018-01-31T13:43:08.240Z,1.10
2018-01-31T13:45:40.740Z,1.03
2018-01-31T13:48:13.300Z,0.93
2018-01-31T13:50:46.658Z,1.13
2018-01-31T13:53:19.169Z,1.23
2018-01-31T13:55:52.499Z,0.90
2018-01-31T13:58:24.881Z,1.60
2018-01-31T14:00:57.515Z,0.93
2018-01-31T14:03:30.062Z,1.00
2018-01-31T14:06:02.599Z,1.13
2018-01-31T14:08:35.241Z,0.97
2018-01-31T14:11:07.737Z,1.00
2018-01-31T14:13:40.387Z,1.10
2018-01-31T14:16:12.944Z,1.07
2018-01-31T14:18:45.580Z,1.17
2018-01-31T14:21:18.165Z,1.70
2018-01-31T14:23:50.688Z,0.90
2018-01-31T14:26:23.108Z,1.30
2018-01-31T14:28:55.672Z,1.10
2018-01-31T14:31:28.244Z,1.07
2018-01-31T14:34:00.752Z,1.13
2018-01-31T14:36:33.353Z,1.10
2018-01-31T14:39:05.953Z,1.30
2018-01-31T14:41:39.318Z,1.00
2018-01-31T14:44:11.777Z,1.10
2018-01-31T14:46:44.264Z,1.10
2018-01-31T14:49:16.855Z,1.60
2018-01-31T14:51:50.184Z,1.33
2018-01-31T14:54:22.563Z,0.90
2018-01-31T14:56:55.049Z,0.90
2018-01-31T14:59:29.068Z,1.07
2018-01-31T15:02:02.443Z,1.20
2018-01-31T15:04:34.967Z,1.03
2018-01-31T15:07:07.535Z,1.00
2018-01-31T15:09:40.897Z,1.20
2018-01-31T15:12:14.181Z,0.90
2018-01-31T15:14:46.679Z,0.90
2018-01-31T15:17:19.273Z,1.33
2018-01-31T15:19:52.535Z,1.37
2018-01-31T15:22:25.020Z,1.00
2018-01-31T15:24:57.507Z,1.00
2018-01-31T15:27:30.075Z,1.70
2018-01-31T15:30:02.659Z,1.30
2018-01-31T15:32:35.131Z,1.00
2018-01-31T15:35:08.520Z,1.10
2018-01-31T15:37:42.611Z,1.10
2018-01-31T15:40:15.048Z,1.20
2018-01-31T15:42:47.592Z,1.03
2018-01-31T15:45:20.115Z,1.43
2018-01-31T15:47:53.414Z,1.00
2018-01-31T15:50:25.967Z,1.17
2018-01-31T15:52:58.493Z,1.10
2018-01-31T15:55:31.056Z,0.90
2018-01-31T15:58:03.772Z,1.00
2018-01-31T16:00:36.349Z,1.10
2018-01-31T16:03:09.483Z,1.03
2018-01-31T16:05:42.304Z,1.20
2018-01-31T16:08:14.743Z,1.10
2018-01-31T16:10:47.225Z,1.57
2018-01-31T16:13:19.704Z,1.50
2018-01-31T16:15:52.207Z,1.00
2018-01-31T16:18:25.456Z,1.00
2018-01-31T16:20:57.975Z,1.07
2018-01-31T16:23:30.496Z,1.40
2018-01-31T16:26:03.139Z,1.50
2018-01-31T16:28:35.676Z,1.07
2018-01-31T16:31:09.056Z,1.40
2018-01-31T16:33:42.340Z,1.10
2018-01-31T16:36:14.823Z,0.90
2018-01-31T16:38:47.339Z,1.20
2018-01-31T16:41:19.800Z,0.90
2018-01-31T16:43:52.304Z,1.10
2018-01-31T16:46:24.900Z,1.30
2018-01-31T16:48:57.416Z,1.00
2018-01-31T16:51:30.001Z,1.07
2018-01-31T16:54:03.356Z,1.20
2018-01-31T16:56:35.851Z,1.30
2018-01-31T16:59:09.024Z,1.07
2018-01-31T17:01:41.556Z,0.90
2018-01-31T17:04:14.857Z,1.43
2018-01-31T17:06:47.400Z,1.17
2018-01-31T17:09:19.997Z,1.20
2018-01-31T17:11:52.547Z,0.90
2018-01-31T17:14:25.000Z,1.10
2018-01-31T17:16:57.532Z,1.37
2018-01-31T17:19:30.004Z,0.97
2018-01-31T17:22:02.495Z,0.97
2018-01-31T17:24:35.791Z,1.37
2018-01-31T17:27:09.100Z,1.07
2018-01-31T17:29:41.576Z,1.23
2018-01-31T17:32:14.080Z,1.77
2018-01-31T17:34:46.685Z,1.13
2018-01-31T17:37:19.308Z,1.03
2018-01-31T17:39:51.791Z,1.53
2018-01-31T17:42:24.348Z,1.10
2018-01-31T17:44:56.948Z,1.00
2018-01-31T17:47:29.531Z,1.30
2018-01-31T17:50:02.880Z,1.23
2018-01-31T17:52:35.396Z,0.90
2018-01-31T17:55:07.987Z,1.20
2018-01-31T17:57:40.451Z,1.03
2018-01-31T18:00:12.944Z,1.10
2018-01-31T18:02:45.508Z,1.00
2018-01-31T18:05:18.036Z,1.00
2018-01-31T18:07:51.428Z,1.10
2018-01-31T18:10:24.011Z,1.23
2018-01-31T18:12:56.623Z,0.90
2018-01-31T18:15:29.125Z,1.10
2018-01-31T18:18:02.354Z,1.20
2018-01-31T18:20:35.624Z,1.07
2018-01-31T18:23:08.932Z,1.07
2018-01-31T18:25:42.512Z,1.27
2018-01-31T18:28:14.996Z,1.13
2018-01-31T18:30:48.292Z,0.97
2018-01-31T18:33:20.884Z,1.00
2018-01-31T18:35:54.189Z,1.00
2018-01-31T18:38:27.466Z,0.70
2018-01-31T18:41:00.077Z,0.90
2018-01-31T18:43:32.674Z,0.80
2018-01-31T18:46:05.249Z,1.13
2018-01-31T18:48:37.831Z,1.00
2018-01-31T18:51:10.362Z,1.00
2018-01-31T18:53:42.852Z,0.83
2018-01-31T18:56:15.360Z,1.23
2018-01-31T18:58:47.884Z,1.10
2018-01-31T19:01:20.319Z,1.00
2018-01-31T19:03:52.903Z,0.93
2018-01-31T19:06:25.410Z,1.60
2018-01-31T19:08:58.679Z,1.00
2018-01-31T19:11:31.857Z,1.20
2018-01-31T19:14:04.376Z,1.10
2018-01-31T19:16:37.616Z,1.90
2018-01-31T19:19:10.980Z,1.23
2018-01-31T19:21:43.407Z,1.00
2018-01-31T19:24:15.952Z,1.10
2018-01-31T19:26:49.303Z,1.07
2018-01-31T19:29:21.732Z,0.90
2018-01-31T19:31:54.219Z,0.90
2018-01-31T19:34:26.835Z,1.00
2018-01-31T19:36:59.435Z,1.17
2018-01-31T19:39:31.936Z,1.00
2018-01-31T19:42:04.480Z,1.00
2018-01-31T19:44:37.071Z,0.97
2018-01-31T19:47:10.429Z,1.30
2018-01-31T19:49:43.052Z,1.13
2018-01-31T19:52:15.448Z,0.97
2018-01-31T19:54:48.016Z,0.93
2018-01-31T19:57:20.537Z,1.10
2018-01-31T19:59:53.490Z,1.20
2018-01-31T20:02:26.044Z,1.10
2018-01-31T20:04:58.532Z,1.30
2018-01-31T20:07:30.999Z,1.27
2018-01-31T20:10:03.467Z,1.00
2018-01-31T20:12:36.731Z,0.77
2018-01-31T20:15:09.417Z,1.27
2018-01-31T20:17:41.923Z,1.20
2018-01-31T20:20:15.232Z,1.10
2018-01-31T20:22:47.716Z,0.90
2018-01-31T20:25:20.300Z,1.37
2018-01-31T20:27:53.655Z,0.90
2018-01-31T20:30:26.042Z,1.10
2018-01-31T20:32:59.422Z,1.30
2018-01-31T20:35:33.004Z,1.40
2018-01-31T20:38:05.589Z,1.10
2018-01-31T20:40:38.205Z,0.90
2018-01-31T20:43:11.987Z,0.97
2018-01-31T20:45:45.507Z,1.40
2018-01-31T20:48:19.251Z,1.00
2018-01-31T20:50:53.802Z,1.43
2018-01-31T20:53:26.345Z,1.40
2018-01-31T20:55:59.062Z,0.90
2018-01-31T20:58:31.680Z,1.07
2018-01-31T21:01:04.248Z,1.40
2018-01-31T21:03:36.892Z,1.20
2018-01-31T21:06:10.408Z,1.27
2018-01-31T21:08:43.216Z,0.97
2018-01-31T21:11:15.967Z,0.90
2018-01-31T21:13:48.653Z,1.10
2018-01-31T21:16:21.492Z,1.17
2018-01-31T21:18:54.120Z,1.23
2018-01-31T21:21:26.579Z,1.03
2018-01-31T21:24:00.396Z,1.03
2018-01-31T21:26:33.927Z,0.90
2018-01-31T21:29:06.802Z,1.00
2018-01-31T21:31:39.605Z,0.90
2018-01-31T21:34:12.439Z,0.93
2018-01-31T21:36:46.344Z,1.20
2018-01-31T21:39:19.265Z,1.10
2018-01-31T21:41:52.249Z,1.23
2018-01-31T21:44:24.912Z,1.13
2018-01-31T21:46:57.765Z,1.23
2018-01-31T21:49:30.530Z,1.50
2018-01-31T21:52:04.067Z,1.10
2018-01-31T21:54:36.851Z,1.30
2018-01-31T21:57:09.391Z,1.20
2018-01-31T21:59:42.524Z,1.23
2018-01-31T22:02:15.898Z,1.17
2018-01-31T22:04:48.270Z,1.13
2018-01-31T22:07:21.031Z,1.60
2018-01-31T22:09:56.076Z,1.27
2018-01-31T22:12:28.733Z,1.00
2018-01-31T22:15:01.655Z,1.10
2018-01-31T22:17:34.283Z,1.17
2018-01-31T22:20:07.090Z,1.33
2018-01-31T22:22:39.739Z,0.97
2018-01-31T22:25:12.643Z,1.10
2018-01-31T22:27:46.290Z,1.07
2018-01-31T22:30:18.797Z,0.93
2018-01-31T22:32:51.503Z,1.07
2018-01-31T22:35:23.888Z,1.43
2018-01-31T22:37:57.656Z,1.23
2018-01-31T22:40:30.332Z,1.20
2018-01-31T22:43:03.981Z,1.10
2018-01-31T22:45:37.139Z,1.00
2018-01-31T22:48:09.608Z,1.00
2018-01-31T22:50:42.952Z,1.20
2018-01-31T22:53:15.956Z,1.30
2018-01-31T22:55:48.504Z,1.10
2018-01-31T22:58:20.979Z,1.00
2018-01-31T23:00:54.268Z,1.37
2018-01-31T23:03:26.672Z,1.60
2018-01-31T23:05:59.255Z,1.43
2018-01-31T23:08:31.804Z,1.00
2018-01-31T23:11:04.403Z,1.30
2018-01-31T23:13:37.012Z,0.83
2018-01-31T23:16:09.532Z,1.10
2018-01-31T23:18:42.828Z,0.90
2018-01-31T23:21:15.331Z,1.00
2018-01-31T23:23:47.927Z,1.30
2018-01-31T23:26:21.156Z,1.17
2018-01-31T23:28:53.736Z,1.00
2018-01-31T23:31:26.225Z,1.10
2018-01-31T23:33:58.837Z,1.00
2018-01-31T23:36:31.333Z,1.00
2018-01-31T23:39:04.660Z,1.10
2018-01-31T23:41:37.148Z,1.10
2018-01-31T23:44:09.743Z,1.23
2018-01-31T23:46:42.295Z,1.13
2018-01-31T23:49:14.701Z,0.80
2018-01-31T23:51:47.243Z,1.33
2018-01-31T23:54:19.748Z,1.30
2018-01-31T23:56:52.267Z,0.97
2018-01-31T23:59:24.841Z,0.87
